Time;durP1;ratioP1;P1;durP2;ratioP2;P2;SDS_P1;SDS_P2;PMS_P1;PMS_P2;Temp;Humidity;BMP_temperature;BMP_pressure;BME280_temperature;BME280_humidity;BME280_pressure;Samples;Min_cycle;Max_cycle;Signal;HPM_P1;HPM_P2
2023/09/24 00:01:56;;;;;;;2.05;1.60;;;11.30;99.90;;;;;;4887362;29;20728;-67
2023/09/24 00:04:28;;;;;;;2.70;2.10;;;11.30;99.90;;;;;;4868967;29;20079;-67
2023/09/24 00:07:00;;;;;;;3.10;1.67;;;11.30;99.90;;;;;;4893224;29;20080;-67
2023/09/24 00:09:32;;;;;;;3.95;1.80;;;11.30;99.90;;;;;;4893693;29;20055;-68
2023/09/24 00:12:04;;;;;;;2.60;1.70;;;11.30;99.90;;;;;;4876697;29;20053;-68
2023/09/24 00:14:36;;;;;;;2.50;1.77;;;11.20;99.90;;;;;;4878432;29;20053;-68
2023/09/24 00:17:09;;;;;;;4.93;2.25;;;11.20;99.90;;;;;;4881777;29;20052;-69
2023/09/24 00:19:41;;;;;;;2.45;1.52;;;11.30;99.90;;;;;;4884932;29;20067;-69
2023/09/24 00:22:12;;;;;;;2.40;1.52;;;11.30;99.90;;;;;;4890638;29;20519;-69
2023/09/24 00:24:46;;;;;;;2.97;1.58;;;11.40;99.90;;;;;;4887587;29;20741;-68
2023/09/24 00:27:18;;;;;;;2.45;1.60;;;11.40;99.90;;;;;;4876670;29;20048;-68
2023/09/24 00:29:50;;;;;;;3.47;1.60;;;11.40;99.90;;;;;;4871852;29;20041;-68
2023/09/24 00:32:22;;;;;;;3.03;1.55;;;11.30;99.90;;;;;;4886792;29;20634;-67
2023/09/24 00:34:55;;;;;;;1.90;1.42;;;11.30;99.90;;;;;;4864999;29;20072;-67
2023/09/24 00:37:27;;;;;;;5.28;2.10;;;11.20;99.90;;;;;;4893372;29;20052;-68
2023/09/24 00:40:00;;;;;;;1.98;1.63;;;11.10;99.90;;;;;;4874620;29;20620;-68
2023/09/24 00:42:32;;;;;;;4.32;1.40;;;11.10;99.90;;;;;;4866384;29;20037;-68
2023/09/24 00:45:11;;;;;;;1.63;1.45;;;11.00;99.90;;;;;;4887689;29;20145;-68
2023/09/24 00:47:43;;;;;;;2.00;1.40;;;10.80;99.90;;;;;;4864009;29;20055;-69
2023/09/24 00:50:15;;;;;;;5.57;2.03;;;10.80;99.90;;;;;;4876756;29;20052;-69
2023/09/24 00:52:44;;;;;;;2.80;1.60;;;10.80;99.90;;;;;;4891902;29;20049;-68
2023/09/24 00:55:17;;;;;;;3.78;1.70;;;10.80;99.90;;;;;;4889083;29;20517;-68
2023/09/24 00:57:50;;;;;;;2.27;1.43;;;10.80;99.90;;;;;;4872110;29;20105;-67
2023/09/24 01:00:18;;;;;;;1.85;1.55;;;10.80;99.90;;;;;;4879634;29;20076;-68
2023/09/24 01:02:51;;;;;;;2.03;1.40;;;10.80;99.90;;;;;;4885259;29;20028;-68
2023/09/24 01:05:22;;;;;;;2.38;1.40;;;10.80;99.90;;;;;;4885576;29;20413;-68
2023/09/24 01:07:54;;;;;;;1.95;1.42;;;10.80;99.90;;;;;;4866423;29;20579;-67
2023/09/24 01:10:26;;;;;;;2.28;1.50;;;10.80;99.90;;;;;;4870777;29;20056;-68
2023/09/24 01:12:59;;;;;;;2.35;1.27;;;10.70;99.90;;;;;;4888279;29;20045;-67
2023/09/24 01:15:31;;;;;;;1.30;1.20;;;10.80;99.90;;;;;;4862784;29;20044;-68
2023/09/24 01:18:03;;;;;;;1.98;1.40;;;10.80;99.90;;;;;;4863552;29;20047;-68
2023/09/24 01:20:36;;;;;;;2.42;1.67;;;10.80;99.90;;;;;;4872838;29;20049;-68
2023/09/24 01:23:14;;;;;;;3.30;1.55;;;10.80;99.90;;;;;;4862180;29;20044;-68
2023/09/24 01:25:46;;;;;;;3.85;2.00;;;10.80;99.90;;;;;;4864247;29;20144;-68
2023/09/24 01:28:18;;;;;;;2.10;1.30;;;10.70;99.90;;;;;;4870885;29;20152;-70
2023/09/24 01:30:50;;;;;;;1.67;1.30;;;10.70;99.90;;;;;;4863245;29;20049;-68
2023/09/24 01:33:23;;;;;;;1.88;1.30;;;10.80;99.90;;;;;;4865620;29;20052;-68
2023/09/24 01:35:55;;;;;;;4.38;1.65;;;10.80;99.90;;;;;;4869434;29;20059;-68
2023/09/24 01:38:27;;;;;;;3.00;1.40;;;10.80;99.90;;;;;;4868477;29;20049;-67
2023/09/24 01:41:00;;;;;;;2.03;1.52;;;10.80;99.90;;;;;;4867551;29;20052;-68
2023/09/24 01:43:33;;;;;;;3.95;1.30;;;10.80;99.90;;;;;;4887795;29;20455;-68
2023/09/24 01:46:09;;;;;;;1.65;1.30;;;10.90;99.90;;;;;;4861587;29;20056;-69
2023/09/24 01:48:44;;;;;;;2.35;1.23;;;10.80;99.90;;;;;;4886526;29;20049;-68
2023/09/24 01:51:16;;;;;;;1.92;1.40;;;10.80;99.90;;;;;;4870945;29;20197;-68
2023/09/24 01:53:48;;;;;;;5.15;1.60;;;10.80;99.90;;;;;;4887459;29;20045;-70
2023/09/24 01:56:18;;;;;;;2.05;1.60;;;10.80;99.90;;;;;;4886073;29;20466;-68
2023/09/24 01:58:51;;;;;;;1.83;1.23;;;10.80;99.90;;;;;;4864099;29;20057;-68
2023/09/24 02:01:18;;;;;;;2.30;1.30;;;10.80;99.90;;;;;;4871439;29;20049;-67
2023/09/24 02:03:50;;;;;;;2.92;1.27;;;10.80;99.90;;;;;;4880806;29;20045;-69
2023/09/24 02:06:22;;;;;;;2.67;1.73;;;10.80;99.90;;;;;;4860434;29;20466;-69
2023/09/24 02:08:54;;;;;;;1.52;1.13;;;10.80;99.90;;;;;;4888792;29;20036;-69
2023/09/24 02:11:27;;;;;;;2.97;1.40;;;10.80;99.90;;;;;;4872489;29;20045;-68
2023/09/24 02:13:59;;;;;;;1.73;1.10;;;10.80;99.90;;;;;;4871585;29;20649;-70
2023/09/24 02:16:31;;;;;;;1.60;1.13;;;10.80;99.90;;;;;;4869574;29;20049;-68
2023/09/24 02:19:00;;;;;;;2.67;1.15;;;10.80;99.90;;;;;;4871269;29;20416;-68
2023/09/24 02:21:32;;;;;;;;;;;10.80;99.90;;;;;;4870844;29;20041;-68
2023/09/24 02:24:04;;;;;;;2.35;1.38;;;10.80;99.90;;;;;;4855323;29;20311;-68
2023/09/24 02:26:32;;;;;;;4.53;1.55;;;10.70;99.90;;;;;;4890305;29;20048;-68
2023/09/24 02:29:07;;;;;;;1.70;1.10;;;10.70;99.90;;;;;;4868067;29;20045;-68
2023/09/24 02:31:39;;;;;;;2.35;1.30;;;10.70;99.90;;;;;;4865535;29;20056;-69
2023/09/24 02:34:11;;;;;;;3.08;1.20;;;10.60;99.90;;;;;;4867065;29;20139;-71
2023/09/24 02:36:38;;;;;;;4.35;1.50;;;10.50;99.90;;;;;;4885506;29;20576;-67
2023/09/24 02:39:05;;;;;;;2.60;1.25;;;10.50;99.90;;;;;;4869027;29;20052;-70
2023/09/24 02:41:37;;;;;;;2.03;1.52;;;10.40;99.90;;;;;;4876863;29;20045;-68
2023/09/24 02:44:09;;;;;;;1.45;1.33;;;10.30;99.90;;;;;;4887274;29;20156;-68
2023/09/24 02:46:41;;;;;;;2.67;1.30;;;10.30;99.90;;;;;;4872345;29;20071;-67
2023/09/24 02:49:15;;;;;;;3.17;1.38;;;10.30;99.90;;;;;;4870122;29;20052;-67
2023/09/24 02:51:42;;;;;;;4.20;1.42;;;10.20;99.90;;;;;;4886773;29;20053;-69
2023/09/24 02:54:10;;;;;;;6.13;1.40;;;10.20;99.90;;;;;;4870180;29;20132;-69
2023/09/24 02:56:42;;;;;;;2.80;1.40;;;10.10;99.90;;;;;;4858816;29;20049;-68
2023/09/24 02:59:14;;;;;;;1.95;1.40;;;10.20;99.90;;;;;;4863011;29;20049;-68
2023/09/24 03:01:51;;;;;;;3.35;1.70;;;10.20;99.90;;;;;;4885583;29;20048;-67
2023/09/24 03:04:23;;;;;;;2.72;1.80;;;10.20;99.90;;;;;;4881653;29;20049;-68
2023/09/24 03:06:55;;;;;;;4.03;1.83;;;10.20;99.90;;;;;;4860773;29;20430;-68
2023/09/24 03:09:28;;;;;;;6.28;1.95;;;10.20;99.90;;;;;;4885173;29;20052;-69
2023/09/24 03:11:55;;;;;;;2.33;1.83;;;10.10;99.90;;;;;;4884220;29;20076;-68
2023/09/24 03:14:27;;;;;;;3.20;2.20;;;10.10;99.90;;;;;;4884891;29;20588;-68
2023/09/24 03:16:54;;;;;;;3.75;2.22;;;10.00;99.90;;;;;;4883151;29;20037;-68
2023/09/24 03:19:28;;;;;;;3.92;2.10;;;10.00;99.90;;;;;;4888323;29;20057;-68
2023/09/24 03:22:00;;;;;;;3.22;2.13;;;10.10;99.90;;;;;;4872552;29;20059;-69
2023/09/24 03:24:32;;;;;;;2.47;2.08;;;10.10;99.90;;;;;;4876741;29;20094;-68
2023/09/24 03:27:04;;;;;;;2.28;1.80;;;10.10;99.90;;;;;;4887969;29;20076;-68
2023/09/24 03:29:36;;;;;;;2.00;1.80;;;10.10;99.90;;;;;;4876496;29;20128;-68
2023/09/24 03:32:03;;;;;;;3.25;1.77;;;10.00;99.90;;;;;;4878194;29;20589;-69
2023/09/24 03:34:35;;;;;;;2.03;1.73;;;10.00;99.90;;;;;;4873994;29;20417;-68
2023/09/24 03:37:09;;;;;;;5.00;2.15;;;9.90;99.90;;;;;;4866522;29;20052;-68
2023/09/24 03:39:41;;;;;;;2.00;1.75;;;9.90;99.90;;;;;;4883840;29;20049;-68
2023/09/24 03:42:14;;;;;;;4.57;1.75;;;9.80;99.90;;;;;;4865913;29;20429;-68
2023/09/24 03:44:45;;;;;;;3.05;1.80;;;9.70;99.90;;;;;;4871708;29;20054;-68
2023/09/24 03:47:18;;;;;;;2.60;1.90;;;9.70;99.90;;;;;;4869957;29;20407;-68
2023/09/24 03:49:50;;;;;;;2.22;1.70;;;9.80;99.90;;;;;;4860852;29;20052;-68
2023/09/24 03:52:22;;;;;;;2.42;1.65;;;9.80;99.90;;;;;;4876886;29;20068;-68
2023/09/24 03:54:54;;;;;;;3.42;2.00;;;9.80;99.90;;;;;;4870315;29;20049;-68
2023/09/24 03:57:30;;;;;;;4.18;2.47;;;9.80;99.90;;;;;;4877709;29;20064;-68
2023/09/24 04:00:13;;;;;;;3.95;2.75;;;9.80;99.90;;;;;;4868929;29;20496;-70
2023/09/24 04:02:40;;;;;;;4.45;2.50;;;9.70;99.90;;;;;;4884649;29;20072;-68
2023/09/24 04:05:09;;;;;;;6.13;3.10;;;9.70;99.90;;;;;;4863950;29;20037;-68
2023/09/24 04:07:42;;;;;;;6.05;2.83;;;9.60;99.90;;;;;;4877481;29;20085;-68
2023/09/24 04:10:15;;;;;;;4.37;2.43;;;9.60;99.90;;;;;;4875420;29;20068;-68
2023/09/24 04:12:50;;;;;;;3.67;2.28;;;9.60;99.90;;;;;;4887887;29;20045;-67
2023/09/24 04:15:27;;;;;;;3.97;2.15;;;9.60;99.90;;;;;;4888051;29;20501;-68
2023/09/24 04:17:56;;;;;;;6.78;3.35;;;9.60;99.90;;;;;;4878174;29;20041;-68
2023/09/24 04:20:26;;;;;;;3.72;1.98;;;9.60;99.90;;;;;;4878670;29;20041;-67
2023/09/24 04:22:53;;;;;;;2.95;1.92;;;9.60;99.90;;;;;;4891386;29;20090;-68
2023/09/24 04:25:26;;;;;;;3.53;2.40;;;9.60;99.90;;;;;;4887288;29;20120;-68
2023/09/24 04:27:59;;;;;;;2.55;1.83;;;9.60;99.90;;;;;;4890166;29;20051;-68
2023/09/24 04:30:31;;;;;;;2.80;1.85;;;9.60;99.90;;;;;;4886137;29;20049;-68
2023/09/24 04:33:09;;;;;;;2.40;1.80;;;9.50;99.90;;;;;;4890869;29;20036;-68
2023/09/24 04:35:36;;;;;;;4.18;2.00;;;9.50;99.90;;;;;;4876737;29;20041;-67
2023/09/24 04:38:08;;;;;;;2.25;2.05;;;9.40;99.90;;;;;;4885528;29;20052;-69
2023/09/24 04:40:40;;;;;;;4.63;2.65;;;9.40;99.90;;;;;;4888709;29;20540;-68
2023/09/24 04:43:15;;;;;;;4.53;2.90;;;9.30;99.90;;;;;;4881296;29;20128;-68
2023/09/24 04:45:47;;;;;;;8.38;3.95;;;9.20;99.90;;;;;;4888945;29;20048;-68
2023/09/24 04:48:19;;;;;;;7.10;4.40;;;9.20;99.90;;;;;;4874164;29;20071;-69
2023/09/24 04:50:55;;;;;;;8.57;4.70;;;9.10;99.90;;;;;;4891849;29;20044;-68
2023/09/24 04:53:27;;;;;;;8.77;4.30;;;9.10;99.90;;;;;;4890629;29;20037;-68
2023/09/24 04:55:59;;;;;;;7.05;4.15;;;9.10;99.90;;;;;;4890944;29;20044;-68
2023/09/24 04:58:31;;;;;;;7.10;3.80;;;9.10;99.90;;;;;;4888780;29;20037;-68
2023/09/24 05:01:07;;;;;;;5.72;2.90;;;9.20;99.90;;;;;;4889303;29;20036;-67
2023/09/24 05:03:39;;;;;;;4.32;2.63;;;9.20;99.90;;;;;;4875826;29;20045;-67
2023/09/24 05:06:11;;;;;;;4.35;3.00;;;9.10;99.90;;;;;;4874316;29;20124;-68
2023/09/24 05:08:43;;;;;;;2.90;2.17;;;9.10;99.90;;;;;;4876280;29;20044;-69
2023/09/24 05:11:15;;;;;;;3.70;1.80;;;9.10;99.90;;;;;;4869178;29;20071;-69
2023/09/24 05:13:47;;;;;;;2.25;1.83;;;9.00;99.90;;;;;;4886009;29;20045;-68
2023/09/24 05:16:21;;;;;;;3.40;1.60;;;9.00;99.90;;;;;;4885116;29;20040;-68
2023/09/24 05:18:53;;;;;;;2.78;2.00;;;9.00;99.90;;;;;;4892274;29;20037;-68
2023/09/24 05:21:25;;;;;;;3.65;1.75;;;9.00;99.90;;;;;;4889400;29;20045;-68
2023/09/24 05:23:57;;;;;;;2.92;1.77;;;9.00;99.90;;;;;;4888313;29;20583;-68
2023/09/24 05:26:29;;;;;;;3.22;1.70;;;9.00;99.90;;;;;;4879325;29;20041;-68
2023/09/24 05:29:01;;;;;;;2.33;1.85;;;9.00;99.90;;;;;;4887367;29;20052;-70
2023/09/24 05:31:32;;;;;;;2.30;1.80;;;9.00;99.90;;;;;;4892163;29;20044;-70
2023/09/24 05:34:05;;;;;;;4.22;1.67;;;9.00;99.90;;;;;;4875627;29;20044;-68
2023/09/24 05:36:32;;;;;;;4.20;2.00;;;9.00;99.90;;;;;;4884738;29;20065;-68
2023/09/24 05:39:04;;;;;;;3.35;1.80;;;9.00;99.90;;;;;;4890314;29;20527;-68
2023/09/24 05:41:36;;;;;;;3.10;1.90;;;9.10;99.90;;;;;;4881625;29;20067;-68
2023/09/24 05:44:08;;;;;;;2.72;1.63;;;9.10;99.90;;;;;;4867955;29;20045;-68
2023/09/24 05:46:40;;;;;;;3.60;2.10;;;9.10;99.90;;;;;;4883437;29;20551;-68
2023/09/24 05:49:12;;;;;;;2.42;1.80;;;9.10;99.90;;;;;;4865423;29;20049;-68
2023/09/24 05:51:44;;;;;;;2.80;1.67;;;9.10;99.90;;;;;;4888916;29;20040;-70
2023/09/24 05:54:16;;;;;;;2.25;1.90;;;9.10;99.90;;;;;;4860106;29;20051;-68
2023/09/24 05:56:48;;;;;;;5.47;2.80;;;9.10;99.90;;;;;;4887758;29;20047;-68
2023/09/24 05:59:15;;;;;;;5.50;3.90;;;9.10;99.90;;;;;;4889749;29;20614;-69
2023/09/24 06:01:47;;;;;;;3.25;2.50;;;9.10;99.90;;;;;;4889711;29;20482;-68
2023/09/24 06:04:18;;;;;;;5.43;3.50;;;9.10;99.90;;;;;;4885055;29;20044;-68
2023/09/24 06:06:50;;;;;;;5.88;3.38;;;9.10;99.90;;;;;;4876327;29;20044;-68
2023/09/24 06:09:17;;;;;;;7.90;3.60;;;9.10;99.90;;;;;;4889236;29;20051;-69
2023/09/24 06:11:44;;;;;;;7.50;5.00;;;9.00;99.90;;;;;;4880776;29;20124;-68
2023/09/24 06:14:16;;;;;;;21.52;14.90;;;9.00;99.90;;;;;;4867593;29;20115;-69
2023/09/24 06:16:48;;;;;;;14.15;7.82;;;8.90;99.90;;;;;;4889591;29;20051;-69
2023/09/24 06:19:20;;;;;;;13.40;6.13;;;8.90;99.90;;;;;;4871059;29;20041;-68
2023/09/24 06:21:50;;;;;;;14.13;9.68;;;9.00;99.90;;;;;;4885914;29;20041;-68
2023/09/24 06:24:17;;;;;;;11.05;7.30;;;9.00;99.90;;;;;;4887871;29;20128;-68
2023/09/24 06:26:44;;;;;;;9.80;5.47;;;9.00;99.90;;;;;;4889758;29;20123;-67
2023/09/24 06:29:16;;;;;;;7.63;5.90;;;9.00;99.90;;;;;;4874690;29;20056;-68
2023/09/24 06:31:50;;;;;;;11.63;7.72;;;9.10;99.90;;;;;;4888308;29;20048;-68
2023/09/24 06:34:22;;;;;;;8.02;5.72;;;9.10;99.90;;;;;;4871097;29;20055;-68
2023/09/24 06:36:54;;;;;;;5.32;3.28;;;9.20;99.90;;;;;;4885690;29;20052;-68
2023/09/24 06:39:26;;;;;;;14.60;11.35;;;9.20;99.90;;;;;;4878519;29;20040;-68
2023/09/24 06:41:59;;;;;;;16.38;11.77;;;9.20;99.90;;;;;;4871464;29;20040;-68
2023/09/24 06:44:26;;;;;;;15.55;9.25;;;9.20;99.90;;;;;;4883150;29;20045;-70
2023/09/24 06:46:58;;;;;;;13.13;8.70;;;9.30;99.90;;;;;;4884440;29;20053;-68
2023/09/24 06:49:25;;;;;;;15.77;9.98;;;9.40;99.90;;;;;;4881296;29;20417;-68
2023/09/24 06:51:58;;;;;;;32.05;17.95;;;9.40;99.90;;;;;;4891083;29;20056;-67
2023/09/24 06:54:32;;;;;;;24.63;15.20;;;9.40;99.90;;;;;;4872946;29;20040;-68
2023/09/24 06:57:04;;;;;;;21.10;13.82;;;9.50;99.90;;;;;;4883516;29;20041;-70
2023/09/24 06:59:36;;;;;;;15.20;10.77;;;9.50;99.90;;;;;;4869918;29;20037;-68
2023/09/24 07:02:08;;;;;;;10.52;7.45;;;9.60;99.90;;;;;;4873563;29;20045;-67
2023/09/24 07:04:40;;;;;;;8.40;6.00;;;9.70;99.90;;;;;;4891852;29;20049;-68
2023/09/24 07:07:12;;;;;;;7.00;4.32;;;9.80;99.90;;;;;;4886312;29;20567;-67
2023/09/24 07:09:47;;;;;;;4.22;3.10;;;9.90;99.90;;;;;;4876835;29;20060;-68
2023/09/24 07:12:19;;;;;;;3.35;2.88;;;10.10;99.90;;;;;;4877234;29;20076;-68
2023/09/24 07:14:46;;;;;;;42.88;20.33;;;10.20;99.90;;;;;;4879456;29;20044;-67
2023/09/24 07:17:15;;;;;;;29.27;14.05;;;10.30;99.90;;;;;;4874597;29;20045;-68
2023/09/24 07:19:47;;;;;;;26.80;14.02;;;10.30;99.90;;;;;;4868440;29;20096;-68
2023/09/24 07:22:25;;;;;;;35.55;16.20;;;10.40;99.90;;;;;;4890068;29;20048;-68
2023/09/24 07:24:57;;;;;;;25.25;12.70;;;10.50;99.90;;;;;;4892296;29;20045;-67
2023/09/24 07:27:29;;;;;;;15.32;7.78;;;10.60;99.90;;;;;;4891160;29;20045;-68
2023/09/24 07:30:02;;;;;;;25.05;14.20;;;10.70;99.90;;;;;;4892894;29;20565;-68
2023/09/24 07:32:29;;;;;;;21.88;12.90;;;10.80;99.90;;;;;;4893696;29;20037;-68
2023/09/24 07:35:01;;;;;;;14.40;8.25;;;10.90;99.90;;;;;;4892531;29;20053;-68
2023/09/24 07:37:33;;;;;;;14.93;10.07;;;11.00;99.90;;;;;;4859946;29;20062;-68
2023/09/24 07:40:05;;;;;;;8.55;5.18;;;11.10;99.90;;;;;;4859778;29;20814;-68
2023/09/24 07:42:38;;;;;;;8.10;4.30;;;11.20;99.90;;;;;;4888637;29;20053;-68
2023/09/24 07:45:12;;;;;;;4.97;3.85;;;11.30;99.90;;;;;;4867381;29;20052;-68
2023/09/24 07:47:39;;;;;;;7.13;4.45;;;11.40;99.90;;;;;;4888517;29;20132;-68
2023/09/24 07:50:11;;;;;;;8.70;3.97;;;11.50;99.90;;;;;;4896931;29;20131;-69
2023/09/24 07:52:43;;;;;;;5.75;4.45;;;11.60;99.90;;;;;;4879598;29;20631;-68
2023/09/24 07:55:15;;;;;;;5.50;3.72;;;11.70;99.90;;;;;;4859537;29;20139;-68
2023/09/24 07:57:47;;;;;;;5.22;3.10;;;11.70;99.90;;;;;;4891750;29;20120;-69
2023/09/24 08:00:20;;;;;;;4.10;3.25;;;11.80;99.90;;;;;;4893622;29;20036;-70
2023/09/24 08:02:51;;;;;;;5.38;3.28;;;11.90;99.90;;;;;;4865296;29;20040;-66
2023/09/24 08:05:18;;;;;;;6.63;4.05;;;12.00;99.90;;;;;;4897593;29;20047;-68
2023/09/24 08:07:50;;;;;;;4.10;3.60;;;12.10;99.90;;;;;;4871379;29;20049;-69
2023/09/24 08:10:22;;;;;;;4.88;3.58;;;12.20;99.90;;;;;;4888587;29;20536;-69
2023/09/24 08:12:55;;;;;;;4.10;3.30;;;12.30;99.90;;;;;;4893186;29;20480;-69
2023/09/24 08:15:27;;;;;;;8.82;4.75;;;12.40;99.90;;;;;;4893857;29;20041;-69
2023/09/24 08:17:59;;;;;;;4.88;3.17;;;12.40;99.90;;;;;;4889437;29;20066;-69
2023/09/24 08:20:31;;;;;;;5.68;3.50;;;12.50;99.90;;;;;;4894398;29;20044;-69
2023/09/24 08:23:03;;;;;;;7.72;3.40;;;12.60;99.90;;;;;;4871811;29;20446;-69
2023/09/24 08:25:35;;;;;;;5.63;3.30;;;12.70;99.90;;;;;;4893038;29;20509;-69
2023/09/24 08:28:03;;;;;;;3.33;2.80;;;12.80;99.90;;;;;;4883341;29;20151;-69
2023/09/24 08:30:35;;;;;;;6.60;2.92;;;12.90;99.90;;;;;;4893392;29;20056;-69
2023/09/24 08:33:09;;;;;;;8.45;3.30;;;13.00;99.90;;;;;;4894087;29;20049;-68
2023/09/24 08:35:41;;;;;;;5.15;3.47;;;13.10;99.90;;;;;;4862733;29;20047;-69
2023/09/24 08:38:08;;;;;;;5.22;2.90;;;13.20;99.90;;;;;;4893739;29;20158;-68
2023/09/24 08:40:40;;;;;;;6.00;3.53;;;13.30;99.90;;;;;;4894018;29;20109;-70
2023/09/24 08:43:19;;;;;;;4.50;2.85;;;13.40;99.90;;;;;;4871511;29;20061;-68
2023/09/24 08:45:51;;;;;;;4.93;2.47;;;13.50;99.90;;;;;;4886203;29;20517;-70
2023/09/24 08:48:19;;;;;;;5.80;2.42;;;13.60;99.90;;;;;;4864256;29;20504;-69
2023/09/24 08:50:51;;;;;;;6.32;2.50;;;13.70;99.90;;;;;;4887970;29;20067;-68
2023/09/24 08:53:21;;;;;;;4.78;2.75;;;13.80;99.90;;;;;;4878729;29;20629;-67
2023/09/24 08:55:53;;;;;;;5.57;2.58;;;13.90;99.90;;;;;;4887815;29;20065;-68
2023/09/24 08:58:20;;;;;;;3.78;1.52;;;14.00;99.90;;;;;;4879627;29;20044;-68
2023/09/24 09:00:51;;;;;;;3.53;2.28;;;14.10;99.90;;;;;;4890959;29;20037;-69
2023/09/24 09:03:23;;;;;;;3.55;2.13;;;14.20;99.90;;;;;;4890677;29;20037;-70
2023/09/24 09:05:51;;;;;;;3.78;1.90;;;14.30;99.90;;;;;;4892536;29;20042;-69
2023/09/24 09:08:23;;;;;;;5.15;2.08;;;14.40;99.90;;;;;;4894852;29;20064;-70
2023/09/24 09:10:55;;;;;;;3.03;2.08;;;14.50;99.90;;;;;;4881532;29;20108;-68
2023/09/24 09:13:27;;;;;;;4.05;2.05;;;14.60;99.90;;;;;;4870972;29;20040;-70
2023/09/24 09:16:03;;;;;;;4.30;2.20;;;14.70;99.90;;;;;;4880309;29;20057;-69
2023/09/24 09:18:31;;;;;;;5.35;1.90;;;14.80;99.90;;;;;;4893048;29;20127;-70
2023/09/24 09:21:01;;;;;;;4.32;2.65;;;15.00;99.90;;;;;;4887566;29;20051;-69
2023/09/24 09:23:40;;;;;;;3.63;2.25;;;15.10;99.90;;;;;;4890112;29;20493;-69
2023/09/24 09:26:08;;;;;;;3.97;2.00;;;15.20;99.90;;;;;;4880536;29;20646;-69
2023/09/24 09:28:40;;;;;;;4.60;2.50;;;15.30;99.90;;;;;;4877966;29;20056;-69
2023/09/24 09:31:11;;;;;;;2.95;2.15;;;15.40;99.90;;;;;;4896280;29;20045;-68
2023/09/24 09:33:43;;;;;;;5.93;2.40;;;15.40;99.90;;;;;;4889526;29;20049;-69
2023/09/24 09:36:30;;;;;;;2.67;2.00;;;15.60;99.90;;;;;;4875590;29;20504;-69
2023/09/24 09:39:03;;;;;;;3.90;2.05;;;15.70;99.90;;;;;;4892219;29;20104;-69
2023/09/24 09:41:39;;;;;;;6.55;1.90;;;15.80;99.90;;;;;;4876714;29;20045;-68
2023/09/24 09:44:15;;;;;;;3.92;1.65;;;15.80;99.90;;;;;;4869671;29;20041;-68
2023/09/24 09:46:47;;;;;;;11.55;2.25;;;15.90;99.90;;;;;;4890069;29;20037;-68
2023/09/24 09:49:25;;;;;;;4.00;1.90;;;16.00;99.90;;;;;;4871963;29;20052;-69
2023/09/24 09:52:00;;;;;;;5.25;1.83;;;16.10;99.90;;;;;;4885718;29;20048;-69
2023/09/24 09:54:38;;;;;;;3.63;1.70;;;16.20;99.90;;;;;;4874580;29;20052;-69
2023/09/24 09:57:10;;;;;;;6.22;1.60;;;16.30;99.90;;;;;;4892367;29;20056;-68
2023/09/24 09:59:38;;;;;;;5.15;1.75;;;16.50;99.90;;;;;;4883725;29;20067;-69
2023/09/24 10:02:10;;;;;;;3.55;1.30;;;16.60;99.90;;;;;;4895233;29;20040;-69
2023/09/24 10:04:45;;;;;;;4.03;1.60;;;16.70;99.90;;;;;;4895752;29;20051;-68
2023/09/24 10:07:17;;;;;;;4.93;1.33;;;16.80;99.90;;;;;;4884902;29;20119;-69
2023/09/24 10:09:50;;;;;;;3.67;1.70;;;16.90;99.90;;;;;;4894439;29;20059;-70
2023/09/24 10:12:36;;;;;;;3.60;1.42;;;16.90;99.90;;;;;;4896063;29;20044;-69
2023/09/24 10:15:37;;;;;;;3.58;1.70;;;17.10;99.90;;;;;;4884555;29;20083;-68
2023/09/24 10:18:09;;;;;;;3.72;1.50;;;17.10;99.90;;;;;;4886418;29;20064;-70
2023/09/24 10:20:49;;;;;;;3.85;1.60;;;17.20;99.90;;;;;;4897001;29;20044;-69
2023/09/24 10:23:30;;;;;;;3.55;1.40;;;17.30;99.90;;;;;;4901636;29;20117;-70
2023/09/24 10:26:05;;;;;;;3.15;1.10;;;17.30;99.90;;;;;;4879026;29;20044;-68
2023/09/24 10:28:50;;;;;;;3.63;1.10;;;17.40;99.90;;;;;;4876852;29;20036;-69
2023/09/24 10:31:20;;;;;;;2.83;1.50;;;17.60;99.90;;;;;;4899905;29;20043;-69
2023/09/24 10:34:03;;;;;;;1.95;1.10;;;17.70;99.90;;;;;;4898162;29;20036;-69
2023/09/24 10:36:35;;;;;;;2.97;1.30;;;17.80;99.90;;;;;;4897667;29;20487;-68
2023/09/24 10:39:07;;;;;;;2.33;1.10;;;17.80;99.90;;;;;;4899671;29;20049;-69
2023/09/24 10:42:11;;;;;;;2.15;1.00;;;17.80;99.90;;;;;;4868689;29;20051;-69
2023/09/24 10:44:39;;;;;;;2.75;0.90;;;17.60;99.90;;;;;;4895761;29;20128;-69
2023/09/24 10:47:29;;;;;;;2.30;1.20;;;17.30;99.90;;;;;;4881196;29;20040;-70
2023/09/24 10:50:05;;;;;;;3.03;1.45;;;17.10;99.90;;;;;;4880917;29;20478;-68
2023/09/24 10:52:46;;;;;;;3.00;1.30;;;16.90;99.90;;;;;;4900209;29;20524;-68
2023/09/24 10:55:42;;;;;;;2.30;1.25;;;16.80;99.90;;;;;;4885650;29;20059;-68
2023/09/24 10:58:14;;;;;;;10.13;1.88;;;16.70;99.90;;;;;;4903941;29;20116;-68
2023/09/24 11:00:44;;;;;;;3.08;1.40;;;16.50;99.90;;;;;;4895089;29;20032;-67
2023/09/24 11:03:13;;;;;;;1.63;1.00;;;16.50;99.90;;;;;;4896976;29;20036;-68
2023/09/24 11:05:40;;;;;;;2.05;1.10;;;16.50;99.90;;;;;;4900501;29;20487;-70
2023/09/24 11:08:08;;;;;;;4.25;1.25;;;16.50;99.90;;;;;;4898829;29;20052;-67
2023/09/24 11:10:41;;;;;;;5.00;1.30;;;16.60;99.90;;;;;;4879745;29;20451;-69
2023/09/24 11:13:16;;;;;;;3.53;1.27;;;16.60;99.90;;;;;;4890056;29;20064;-68
2023/09/24 11:15:48;;;;;;;3.10;1.52;;;16.70;99.90;;;;;;4876599;29;20052;-70
2023/09/24 11:18:20;;;;;;;2.42;1.08;;;16.70;99.90;;;;;;4892202;29;20049;-67
2023/09/24 11:20:53;;;;;;;3.63;1.40;;;16.80;99.90;;;;;;4865219;29;20048;-68
2023/09/24 11:23:24;;;;;;;2.10;1.10;;;16.90;99.90;;;;;;4876308;29;20043;-67
2023/09/24 11:25:56;;;;;;;2.97;1.30;;;16.80;99.90;;;;;;4892781;29;20044;-67
2023/09/24 11:28:31;;;;;;;2.90;1.20;;;16.80;99.90;;;;;;4879154;29;20144;-68
2023/09/24 11:31:04;;;;;;;2.17;1.30;;;16.80;99.90;;;;;;4886998;29;20048;-68
2023/09/24 11:33:36;;;;;;;2.50;1.70;;;16.70;99.90;;;;;;4879581;29;20044;-68
2023/09/24 11:36:16;;;;;;;2.47;1.40;;;16.70;99.90;;;;;;4896824;29;20051;-69
2023/09/24 11:38:58;;;;;;;2.72;1.50;;;16.70;99.90;;;;;;4879512;29;20056;-69
2023/09/24 11:41:29;;;;;;;3.30;1.58;;;16.70;99.90;;;;;;4895579;29;20036;-69
2023/09/24 11:44:02;;;;;;;1.85;1.10;;;16.70;99.90;;;;;;4895768;29;20046;-67
2023/09/24 11:46:35;;;;;;;3.50;1.40;;;16.60;99.90;;;;;;4880700;29;20560;-68
2023/09/24 11:49:08;;;;;;;3.47;1.50;;;16.60;99.90;;;;;;4883848;29;20531;-67
2023/09/24 11:51:35;;;;;;;1.95;1.30;;;16.50;99.90;;;;;;4861387;29;20044;-67
2023/09/24 11:54:11;;;;;;;2.30;1.30;;;16.50;99.90;;;;;;4882175;29;20051;-68
2023/09/24 11:56:43;;;;;;;3.63;1.48;;;16.40;99.90;;;;;;4882843;29;20063;-68
2023/09/24 11:59:15;;;;;;;1.77;1.20;;;16.40;99.90;;;;;;4870084;29;20119;-67
2023/09/24 12:01:47;;;;;;;3.97;1.50;;;16.40;99.90;;;;;;4896572;29;20036;-69
2023/09/24 12:04:18;;;;;;;2.63;1.40;;;16.30;99.90;;;;;;4895178;29;20041;-68
2023/09/24 12:06:50;;;;;;;2.72;1.38;;;16.20;99.90;;;;;;4879165;29;20044;-69
2023/09/24 12:09:22;;;;;;;3.35;1.30;;;16.20;99.90;;;;;;4876433;29;20064;-68
2023/09/24 12:11:54;;;;;;;2.42;1.00;;;16.20;99.90;;;;;;4860087;29;20518;-68
2023/09/24 12:14:26;;;;;;;3.33;1.17;;;16.10;99.90;;;;;;4890342;29;20049;-68
2023/09/24 12:16:57;;;;;;;2.90;1.20;;;16.10;99.90;;;;;;4877700;29;20435;-68
2023/09/24 12:19:29;;;;;;;2.40;1.20;;;16.10;99.90;;;;;;4860718;29;20131;-67
2023/09/24 12:22:02;;;;;;;4.45;1.50;;;16.10;99.90;;;;;;4886970;29;20107;-68
2023/09/24 12:24:34;;;;;;;2.55;1.60;;;16.30;99.90;;;;;;4895362;29;20405;-69
2023/09/24 12:27:06;;;;;;;1.58;1.30;;;16.60;99.90;;;;;;4887265;29;20041;-68
2023/09/24 12:29:32;;;;;;;2.80;1.33;;;16.90;99.90;;;;;;4893024;29;20172;-67
2023/09/24 12:32:04;;;;;;;2.40;1.30;;;17.20;99.90;;;;;;4881009;29;20059;-69
2023/09/24 12:34:36;;;;;;;2.85;1.20;;;17.30;99.90;;;;;;4886585;29;20036;-69
2023/09/24 12:37:08;;;;;;;2.15;1.48;;;17.30;99.90;;;;;;4902274;29;20041;-69
2023/09/24 12:39:40;;;;;;;4.20;1.30;;;17.30;99.90;;;;;;4881776;29;20128;-67
2023/09/24 12:42:12;;;;;;;3.90;1.58;;;17.40;99.90;;;;;;4903792;29;20043;-67
2023/09/24 12:44:39;;;;;;;2.45;1.35;;;17.50;99.90;;;;;;4900704;29;20052;-69
2023/09/24 12:47:11;;;;;;;2.92;1.60;;;17.60;99.90;;;;;;4885841;29;20060;-67
2023/09/24 12:49:43;;;;;;;2.90;1.63;;;17.60;99.90;;;;;;4877956;29;20179;-69
2023/09/24 12:52:15;;;;;;;3.63;1.88;;;17.60;99.90;;;;;;4881259;29;20428;-68
2023/09/24 12:54:41;;;;;;;3.92;2.42;;;17.40;99.90;;;;;;4892913;29;20045;-69
2023/09/24 12:57:13;;;;;;;6.13;3.30;;;17.30;99.90;;;;;;4891399;29;20048;-69
2023/09/24 12:59:45;;;;;;;4.97;2.65;;;17.30;99.90;;;;;;4897651;29;20044;-69
2023/09/24 13:02:17;;;;;;;3.03;1.20;;;17.50;99.90;;;;;;4888072;29;20076;-66
2023/09/24 13:04:49;;;;;;;2.03;1.13;;;17.60;99.90;;;;;;4900411;29;20037;-67
2023/09/24 13:07:21;;;;;;;1.42;0.85;;;17.80;99.90;;;;;;4881888;29;20036;-69
2023/09/24 13:09:48;;;;;;;2.45;1.13;;;18.00;99.90;;;;;;4887413;29;20589;-69
2023/09/24 13:12:20;;;;;;;1.88;1.00;;;18.30;99.90;;;;;;4888826;29;20044;-67
2023/09/24 13:14:52;;;;;;;1.60;1.08;;;18.50;99.90;;;;;;4896220;29;20060;-67